Ana Sayfa
METAR-TAF:

METAR-TAF

Havaalanları :

Midilli, Yunanistan

Enlem: 39-04N, Boylam: 026-36E, yükseklik: 3 m

Güncel hava durumu gözlemi

Rapor saat 19:20 UTC de 23 dakika önce yapıldı.
Rüzgar batı/güneybatıdan 4 kt
Sıcaklık 18°C
Nem 83%
Basınç 1018 hPa
Görüş mesafesi: 7000 m
2000 ft yükseklikte az bulutlu

METAR: LGMT 181920Z 25004KT 7000 FEW020 18/15 Q1018

Saat: 22:43 (19:43 UTC)

Tahmin

Rapor saat 17:00 UTC de 2 saat ve 43 dakika önce yapıldı.
Ayın 18'si saat 18 UTC'den ayın 19'si saat 03 UTC'ye kadar geçerli Tahmin
Rüzgar değişken yönden 5 kt
Görüş mesafesi: 8000 m
1800 ft yükseklikte parçalı bulutlu

TAF: LGMT 181700Z 1818/1903 VRB05KT 8000 SCT018

4.000'den fazla havaalanı için hava durumu gözlemleri ve tahminleri (METAR ve TAF raporları).

Kullanılabilir istasyonlar harita üzerinde sarı ve kırmızı noktalarla gösterilir.

İstasyonun adını görmek için fareyi noktanın üzerinde gezdirin.

Sonrasında hava gözlem ve tahminlerini görmek için tıklayın.

Haritayı değiştirmek için: yaklaştırmak için siyah artı işaretli yeşil düğmeye ve uzaklaştırmak için de eksi işaretli düğmeye hızla tıklayın; bitişik haritalar için yeşil okları kullanın.


METAR-TAF: